LKCB weather

Cheb Airport
Cheb, Carlsbad Region, Czech Republic

Public forecast

Using degrees Celsius for public forecast. Weather courtesy of forecast.io.

Closest aviation weather report (METAR) to Cheb Airport

Closest report is Karlovy Vary International Airport, 21.0 nm (39.0 km) ENE. Retrieved 2020/02/21 00:10 UTC (28 minutes ago):

LKKV 210010Z 23011G24KT 190V270 9999 -SHRA BKN020 05/01 Q1012 RMK REG QNH 1007

Closest aviation forecast (TAF) to Cheb Airport

Closest forecast is Karlovy Vary International Airport, 21.0 nm (39.0 km) ENE. Retrieved 2020-02-21 00:09 UTC (29 minutes ago):

TAF LKKV 202300Z 2100/2206 21008KT 9999 BKN020 BECMG 2100/2101 24012G22KT TEMPO 2101/2115 29014G26KT 4000 -SHSNRA SCT007TCU BKN010 PROB40 TEMPO 2101/2105 30018G38KT 1500 SHSN SCT005CB BKN007